Durham — WDF3868 — position and weather

sailwx.info

Track history (hours):
 
Tides and Currents Weather Stations Pressure Air Temp Water Temp Dewpoint Dewpoint Depression Visibility Wind Speed Wind Dir Waves Ship Positions

Durham

Owner: KEN'S BOOMING & BOAT SERVICE, INC., BAYONNE, NJ. More information available from US FCC via Universal Licensing System and Coast Guard Vessel Documentation Center.

Last reported at 2017-Jan-19 23:17 UTC. Time now 2017-Jan-20 20:15 UTC.
Position N 40°46' W 073°60'.

Length 18 m.

MMSI: 367444950.

Date/timePositionNaut miles runAvg speedWind from/ knotsBaromVisibWave heightAir tempDewpointWater temp
2017-Jan-19 23:17N 40°46' W 073°60'0 0.0
2017-Jan-19 21:33N 40°46' W 073°60'0 0.0
2017-Jan-19 20:33N 40°46' W 073°60'0 0.0
2017-Jan-19 19:33N 40°46' W 073°60'0 0.0
2017-Jan-19 18:33N 40°46' W 073°60'0 0.0
2017-Jan-19 17:33N 40°46' W 073°60'0 0.0
2017-Jan-19 16:33N 40°46' W 073°60'0 0.0
2017-Jan-19 15:33N 40°46' W 073°60'0 0.0
2017-Jan-19 14:33N 40°46' W 073°60'0 0.0
2017-Jan-19 13:33N 40°46' W 073°60'0 0.0
2017-Jan-17 21:23N 40°46' W 073°60'0 0.0
2017-Jan-17 20:33N 40°46' W 073°60'0 0.0
2017-Jan-17 19:33N 40°46' W 073°60'0 0.0
2017-Jan-17 18:33N 40°46' W 073°60'0 0.0
2017-Jan-17 17:33N 40°46' W 073°60'0 0.0
2017-Jan-17 16:33N 40°46' W 073°60'  
2017-Jan-13 17:05N 40°46' W 073°60'3 5.2
2017-Jan-13 16:33N 40°44' W 074°01'2 1.6
2017-Jan-13 15:33N 40°43' W 074°03'0 0.0
2017-Jan-13 14:33N 40°43' W 074°03'2 1.6
2017-Jan-13 13:33N 40°44' W 074°01'3 2.7
2017-Jan-13 12:33N 40°46' W 073°60'  
2017-Jan-10 15:33N 40°47' W 073°60'  
Track history (hours):
 
Tides and Currents Weather Stations Pressure Air Temp Water Temp Dewpoint Dewpoint Depression Visibility Wind Speed Wind Dir Waves Ship Positions

Durham

Owner: KEN'S BOOMING & BOAT SERVICE, INC., BAYONNE, NJ. More information available from US FCC via Universal Licensing System and Coast Guard Vessel Documentation Center.

Last reported at 2017-Jan-19 23:17 UTC. Time now 2017-Jan-20 20:15 UTC.
Position N 40°46' W 073°60'.

Length 18 m.

MMSI: 367444950.

Date/timePositionNaut miles runAvg speedWind from/ knotsBaromVisibWave heightAir tempDewpointWater temp
2017-Jan-19 23:17N 40°46' W 073°60'0 0.0
2017-Jan-19 21:33N 40°46' W 073°60'0 0.0
2017-Jan-19 20:33N 40°46' W 073°60'0 0.0
2017-Jan-19 19:33N 40°46' W 073°60'0 0.0
2017-Jan-19 18:33N 40°46' W 073°60'0 0.0
2017-Jan-19 17:33N 40°46' W 073°60'0 0.0
2017-Jan-19 16:33N 40°46' W 073°60'0 0.0
2017-Jan-19 15:33N 40°46' W 073°60'0 0.0
2017-Jan-19 14:33N 40°46' W 073°60'0 0.0
2017-Jan-19 13:33N 40°46' W 073°60'0 0.0
2017-Jan-17 21:23N 40°46' W 073°60'0 0.0
2017-Jan-17 20:33N 40°46' W 073°60'0 0.0
2017-Jan-17 19:33N 40°46' W 073°60'0 0.0
2017-Jan-17 18:33N 40°46' W 073°60'0 0.0
2017-Jan-17 17:33N 40°46' W 073°60'0 0.0
2017-Jan-17 16:33N 40°46' W 073°60'  
2017-Jan-13 17:05N 40°46' W 073°60'3 5.2
2017-Jan-13 16:33N 40°44' W 074°01'2 1.6
2017-Jan-13 15:33N 40°43' W 074°03'0 0.0
2017-Jan-13 14:33N 40°43' W 074°03'2 1.6
2017-Jan-13 13:33N 40°44' W 074°01'3 2.7
2017-Jan-13 12:33N 40°46' W 073°60'  
2017-Jan-10 15:33N 40°47' W 073°60'  

Dump ship's entire track history